Carnival Valor — H3VR — position and weather

sailwx.info

Track history (hours):
 
Tides and Currents Weather Stations Pressure Air Temp Water Temp Dewpoint Dewpoint Depression Visibility Wind Speed Wind Dir Waves Ship Positions

Carnival Valor

Last reported at 2017-May-24 06:00 UTC. Time now 2017-May-25 02:53 UTC.
Position N 22°54' W 090°42'.

Type: Ship. MMSI: 354298000.

Wind from 080 at 24 knots

Barometer 1009.0 mb
Air temperature 24.0 ° C
Visibility: greater than 5.4 NM
Dewpoint 21.0 ° C
Water temperature 28.0 ° C

Date/timePositionNaut miles runAvg speedWind from/ knotsBaromVisibWave heightAir tempDewpointWater temp
2017-May-24 06:00N 22°54' W 090°42'110 6.1 080 / 241009.0 5.4 24.021.028.0
2017-May-23 12:00N 21°42' W 089°12'10717.8 160 / 181010.010.8 22.018.925.0
2017-May-23 06:00N 21°54' W 087°18'8012.9 160 / 251013.0 5.4 24.019.428.0
2017-May-22 23:47N 20°36' W 086°58'517.2
2017-May-22 23:30N 20°31' W 086°60'3 5.7
2017-May-22 22:59N 20°29' W 086°59'0 0.0
2017-May-22 22:28N 20°29' W 086°59'0 0.0
2017-May-22 21:58N 20°29' W 086°59'0 0.0
2017-May-22 21:28N 20°29' W 086°59'0 0.0
2017-May-22 20:58N 20°29' W 086°59'0 0.0
2017-May-22 20:28N 20°29' W 086°59'0 0.0
2017-May-22 20:00N 20°29' W 086°59'0 0.0
2017-May-22 19:27N 20°29' W 086°59'0 0.0
2017-May-22 19:00N 20°29' W 086°59'0 0.0
2017-May-22 18:30N 20°29' W 086°59'0 0.0
2017-May-22 17:59N 20°29' W 086°59'0 0.0
2017-May-22 17:29N 20°29' W 086°59'0 0.0
2017-May-22 16:59N 20°29' W 086°59'0 0.0
2017-May-22 16:30N 20°29' W 086°59'0 0.0
2017-May-22 16:00N 20°29' W 086°59'0 0.0
2017-May-22 15:30N 20°29' W 086°59'0 0.0
2017-May-22 15:00N 20°29' W 086°59'0 0.0
2017-May-22 14:00N 20°29' W 086°59'0 0.9
2017-May-22 13:30N 20°29' W 086°59'4 8.3
2017-May-22 13:00N 20°33' W 086°60'713.9
2017-May-22 12:30N 20°39' W 086°56'7513.7
2017-May-22 07:00N 21°54' W 086°48'4924.5 010 / 211013.0 5.4 22.018.928.0
2017-May-22 05:00N 22°30' W 087°24'17517.5 110 / 251013.010.8 22.018.9
2017-May-21 19:00N 24°36' W 089°36'12718.2 120 / 151013.0 5.4 26.023.127.0
2017-May-21 12:00N 26°18' W 091°00'8020.1 130 / 171011.0 5.4 24.022.526.0
2017-May-21 08:00N 27°18' W 092°00'11519.2 140 / 151010.0 5.4 23.021.526.0
2017-May-21 02:00N 28°36' W 093°36'7317.3 150 / 121010.010.8 22.020.5
2017-May-20 21:47N 29°21' W 094°42'312.3
2017-May-20 21:30N 29°21' W 094°46'3 4.8
2017-May-20 20:56N 29°19' W 094°48'0 0.0
2017-May-20 20:29N 29°19' W 094°48'0 0.0
2017-May-20 19:49N 29°19' W 094°48'0 0.0
2017-May-20 19:25N 29°19' W 094°48'0 0.0
2017-May-20 18:55N 29°19' W 094°48'0 0.0
2017-May-20 18:19N 29°19' W 094°48'0 0.0
2017-May-20 17:18N 29°19' W 094°48'0 0.0
2017-May-20 16:54N 29°19' W 094°48'0 0.0
2017-May-20 16:27N 29°19' W 094°48'0 0.0
2017-May-20 15:23N 29°19' W 094°48'0 0.0
2017-May-20 14:59N 29°19' W 094°48'0 0.0
2017-May-20 14:08N 29°19' W 094°48'0 0.0
2017-May-20 13:29N 29°19' W 094°48'0 0.0
2017-May-20 12:49N 29°19' W 094°48'0 1.5
2017-May-20 12:30N 29°19' W 094°48'2 3.6
2017-May-20 12:00N 29°20' W 094°46'33614.0
2017-May-19 12:00N 24°24' W 091°48'15917.6 130 / 251007.010.8 23.021.525.0
2017-May-19 03:00N 22°12' W 090°12'54 3.6 110 / 351008.010.8 22.018.9
2017-May-18 12:00N 21°42' W 089°24'15112.5 120 / 141008.010.8 22.022.025.0
2017-May-17 23:53N 20°36' W 086°58'515.0
2017-May-17 23:31N 20°31' W 087°00'3 5.4
2017-May-17 22:58N 20°29' W 086°59'0 0.0
2017-May-17 22:28N 20°29' W 086°59'0 0.0
2017-May-17 21:58N 20°29' W 086°59'0 0.0
2017-May-17 21:28N 20°29' W 086°59'0 0.0
2017-May-17 21:00N 20°29' W 086°59'0 0.0
2017-May-17 20:30N 20°29' W 086°59'0 0.0
2017-May-17 20:00N 20°29' W 086°59'0 0.0
2017-May-17 19:30N 20°29' W 086°59'0 0.0
2017-May-17 18:59N 20°29' W 086°59'0 0.0
2017-May-17 18:23N 20°29' W 086°59'0 0.0
2017-May-17 17:53N 20°29' W 086°59'0 0.0
2017-May-17 17:29N 20°29' W 086°59'0 0.0
2017-May-17 16:59N 20°29' W 086°59'0 0.0
2017-May-17 16:28N 20°29' W 086°59'0 0.0
2017-May-17 15:58N 20°29' W 086°59'0 0.0
2017-May-17 15:28N 20°29' W 086°59'0 0.0
2017-May-17 14:58N 20°29' W 086°59'0 0.0
2017-May-17 14:00N 20°29' W 086°59'0 0.7
2017-May-17 13:30N 20°29' W 086°59'5 9.3
2017-May-17 13:01N 20°33' W 086°60'713.8
2017-May-17 12:30N 20°39' W 086°56'814.7
2017-May-17 12:00N 20°42' W 086°48'40817.0 100 / 201009.010.8 25.022.027.0
2017-May-16 12:00N 26°18' W 091°00'26818.8 120 / 151010.010.8 21.016.124.0
2017-May-15 21:46N 29°21' W 094°42'414.4
2017-May-15 21:30N 29°20' W 094°46'2 1.9
2017-May-15 20:17N 29°19' W 094°48'0 0.0
2017-May-15 18:41N 29°19' W 094°48'0 0.0
2017-May-15 18:23N 29°19' W 094°48'0 0.0
2017-May-15 17:40N 29°19' W 094°48'0 0.0
2017-May-15 17:16N 29°19' W 094°48'0 0.0
2017-May-15 16:46N 29°19' W 094°48'0 0.0
2017-May-15 15:58N 29°19' W 094°48'0 0.0
2017-May-15 15:03N 29°19' W 094°48'0 0.0
2017-May-15 14:51N 29°19' W 094°48'0 0.0
2017-May-15 13:57N 29°19' W 094°48'0 0.0
2017-May-15 13:26N 29°19' W 094°48'0 0.0
2017-May-15 12:51N 29°19' W 094°48'1 1.7
2017-May-15 12:30N 29°19' W 094°47'2 4.7
2017-May-15 11:59N 29°21' W 094°45'44418.5
2017-May-14 12:00N 24°06' W 088°54'   020 / 181009.010.8 22.015.425.0
Track history (hours):
 
Tides and Currents Weather Stations Pressure Air Temp Water Temp Dewpoint Dewpoint Depression Visibility Wind Speed Wind Dir Waves Ship Positions

Carnival Valor

Last reported at 2017-May-24 06:00 UTC. Time now 2017-May-25 02:53 UTC.
Position N 22°54' W 090°42'.

Type: Ship. MMSI: 354298000.

Wind from 080 at 24 knots

Barometer 1009.0 mb
Air temperature 24.0 ° C
Visibility: greater than 5.4 NM
Dewpoint 21.0 ° C
Water temperature 28.0 ° C

Date/timePositionNaut miles runAvg speedWind from/ knotsBaromVisibWave heightAir tempDewpointWater temp
2017-May-24 06:00N 22°54' W 090°42'110 6.1 080 / 241009.0 5.4 24.021.028.0
2017-May-23 12:00N 21°42' W 089°12'10717.8 160 / 181010.010.8 22.018.925.0
2017-May-23 06:00N 21°54' W 087°18'8012.9 160 / 251013.0 5.4 24.019.428.0
2017-May-22 23:47N 20°36' W 086°58'517.2
2017-May-22 23:30N 20°31' W 086°60'3 5.7
2017-May-22 22:59N 20°29' W 086°59'0 0.0
2017-May-22 22:28N 20°29' W 086°59'0 0.0
2017-May-22 21:58N 20°29' W 086°59'0 0.0
2017-May-22 21:28N 20°29' W 086°59'0 0.0
2017-May-22 20:58N 20°29' W 086°59'0 0.0
2017-May-22 20:28N 20°29' W 086°59'0 0.0
2017-May-22 20:00N 20°29' W 086°59'0 0.0
2017-May-22 19:27N 20°29' W 086°59'0 0.0
2017-May-22 19:00N 20°29' W 086°59'0 0.0
2017-May-22 18:30N 20°29' W 086°59'0 0.0
2017-May-22 17:59N 20°29' W 086°59'0 0.0
2017-May-22 17:29N 20°29' W 086°59'0 0.0
2017-May-22 16:59N 20°29' W 086°59'0 0.0
2017-May-22 16:30N 20°29' W 086°59'0 0.0
2017-May-22 16:00N 20°29' W 086°59'0 0.0
2017-May-22 15:30N 20°29' W 086°59'0 0.0
2017-May-22 15:00N 20°29' W 086°59'0 0.0
2017-May-22 14:00N 20°29' W 086°59'0 0.9
2017-May-22 13:30N 20°29' W 086°59'4 8.3
2017-May-22 13:00N 20°33' W 086°60'713.9
2017-May-22 12:30N 20°39' W 086°56'7513.7
2017-May-22 07:00N 21°54' W 086°48'4924.5 010 / 211013.0 5.4 22.018.928.0
2017-May-22 05:00N 22°30' W 087°24'17517.5 110 / 251013.010.8 22.018.9
2017-May-21 19:00N 24°36' W 089°36'12718.2 120 / 151013.0 5.4 26.023.127.0
2017-May-21 12:00N 26°18' W 091°00'8020.1 130 / 171011.0 5.4 24.022.526.0
2017-May-21 08:00N 27°18' W 092°00'11519.2 140 / 151010.0 5.4 23.021.526.0
2017-May-21 02:00N 28°36' W 093°36'7317.3 150 / 121010.010.8 22.020.5
2017-May-20 21:47N 29°21' W 094°42'312.3
2017-May-20 21:30N 29°21' W 094°46'3 4.8
2017-May-20 20:56N 29°19' W 094°48'0 0.0
2017-May-20 20:29N 29°19' W 094°48'0 0.0
2017-May-20 19:49N 29°19' W 094°48'0 0.0
2017-May-20 19:25N 29°19' W 094°48'0 0.0
2017-May-20 18:55N 29°19' W 094°48'0 0.0
2017-May-20 18:19N 29°19' W 094°48'0 0.0
2017-May-20 17:18N 29°19' W 094°48'0 0.0
2017-May-20 16:54N 29°19' W 094°48'0 0.0
2017-May-20 16:27N 29°19' W 094°48'0 0.0
2017-May-20 15:23N 29°19' W 094°48'0 0.0
2017-May-20 14:59N 29°19' W 094°48'0 0.0
2017-May-20 14:08N 29°19' W 094°48'0 0.0
2017-May-20 13:29N 29°19' W 094°48'0 0.0
2017-May-20 12:49N 29°19' W 094°48'0 1.5
2017-May-20 12:30N 29°19' W 094°48'2 3.6
2017-May-20 12:00N 29°20' W 094°46'33614.0
2017-May-19 12:00N 24°24' W 091°48'15917.6 130 / 251007.010.8 23.021.525.0
2017-May-19 03:00N 22°12' W 090°12'54 3.6 110 / 351008.010.8 22.018.9
2017-May-18 12:00N 21°42' W 089°24'15112.5 120 / 141008.010.8 22.022.025.0
2017-May-17 23:53N 20°36' W 086°58'515.0
2017-May-17 23:31N 20°31' W 087°00'3 5.4
2017-May-17 22:58N 20°29' W 086°59'0 0.0
2017-May-17 22:28N 20°29' W 086°59'0 0.0
2017-May-17 21:58N 20°29' W 086°59'0 0.0
2017-May-17 21:28N 20°29' W 086°59'0 0.0
2017-May-17 21:00N 20°29' W 086°59'0 0.0
2017-May-17 20:30N 20°29' W 086°59'0 0.0
2017-May-17 20:00N 20°29' W 086°59'0 0.0
2017-May-17 19:30N 20°29' W 086°59'0 0.0
2017-May-17 18:59N 20°29' W 086°59'0 0.0
2017-May-17 18:23N 20°29' W 086°59'0 0.0
2017-May-17 17:53N 20°29' W 086°59'0 0.0
2017-May-17 17:29N 20°29' W 086°59'0 0.0
2017-May-17 16:59N 20°29' W 086°59'0 0.0
2017-May-17 16:28N 20°29' W 086°59'0 0.0
2017-May-17 15:58N 20°29' W 086°59'0 0.0
2017-May-17 15:28N 20°29' W 086°59'0 0.0
2017-May-17 14:58N 20°29' W 086°59'0 0.0
2017-May-17 14:00N 20°29' W 086°59'0 0.7
2017-May-17 13:30N 20°29' W 086°59'5 9.3
2017-May-17 13:01N 20°33' W 086°60'713.8
2017-May-17 12:30N 20°39' W 086°56'814.7
2017-May-17 12:00N 20°42' W 086°48'40817.0 100 / 201009.010.8 25.022.027.0
2017-May-16 12:00N 26°18' W 091°00'26818.8 120 / 151010.010.8 21.016.124.0
2017-May-15 21:46N 29°21' W 094°42'414.4
2017-May-15 21:30N 29°20' W 094°46'2 1.9
2017-May-15 20:17N 29°19' W 094°48'0 0.0
2017-May-15 18:41N 29°19' W 094°48'0 0.0
2017-May-15 18:23N 29°19' W 094°48'0 0.0
2017-May-15 17:40N 29°19' W 094°48'0 0.0
2017-May-15 17:16N 29°19' W 094°48'0 0.0
2017-May-15 16:46N 29°19' W 094°48'0 0.0
2017-May-15 15:58N 29°19' W 094°48'0 0.0
2017-May-15 15:03N 29°19' W 094°48'0 0.0
2017-May-15 14:51N 29°19' W 094°48'0 0.0
2017-May-15 13:57N 29°19' W 094°48'0 0.0
2017-May-15 13:26N 29°19' W 094°48'0 0.0
2017-May-15 12:51N 29°19' W 094°48'1 1.7
2017-May-15 12:30N 29°19' W 094°47'2 4.7
2017-May-15 11:59N 29°21' W 094°45'44418.5
2017-May-14 12:00N 24°06' W 088°54'   020 / 181009.010.8 22.015.425.0

Dump ship's entire track history